Alfred, Texas
Current Conditions -  °F | °C
As of 3:53 AM on Thursday 23 Oct 2014 (Local Time) from KALI Reporting Station
Clear Clear  
Wind Chill: 65°   Ceiling: Unl
Heat Index: 65°   Visibility: 9mi
Dew Point: 63°   Wind: 7mph
Humidity: 93%   Direction: 30°NNE
Pressure: 30.04"   Gusts: NA
Location:  27.6821°N, 98.1034°W
Report Text: KALI 230853Z AUTO 03006KT 9SM CLR 18/17 A3004 RMK AO2 SLP169 T01830172 56006
Loading
Personal Weather Stations






























Interactive Weather Map
Tropical Storm Tracking
New forecast layout! Learn more

10-Day Weather Forecast

Advertisements
Track Severe Weather on mobile